Time;durP1;ratioP1;P1;durP2;ratioP2;P2;SDS_P1;SDS_P2;PMS_P1;PMS_P2;Temp;Humidity;BMP_temperature;BMP_pressure;BME280_temperature;BME280_humidity;BME280_pressure;Samples;Min_cycle;Max_cycle;Signal;HPM_P1;HPM_P2
2022/10/25 00:01:46;;;;;;;11.20;5.80;;;;;;;14.13;100.00;100248.76;3473027;84;34356;-87
2022/10/25 00:06:48;;;;;;;18.00;6.73;;;;;;;14.07;100.00;100245.43;3449126;84;98890;-86
2022/10/25 00:11:49;;;;;;;11.67;5.47;;;;;;;14.03;100.00;100250.19;3472574;84;25875;-88
2022/10/25 00:16:50;;;;;;;12.53;6.53;;;;;;;13.96;100.00;100255.77;3463244;84;99031;-87
2022/10/25 00:21:50;;;;;;;15.73;7.63;;;;;;;13.82;100.00;100254.44;3488317;84;25884;-86
2022/10/25 00:26:51;;;;;;;13.50;7.07;;;;;;;13.82;100.00;100254.44;3476048;84;99233;-86
2022/10/25 00:31:52;;;;;;;15.07;6.70;;;;;;;13.75;100.00;100258.64;3480490;84;33166;-87
2022/10/25 00:36:53;;;;;;;13.67;6.53;;;;;;;13.68;100.00;100259.45;3471375;84;98917;-86
2022/10/25 00:41:54;;;;;;;11.55;5.70;;;;;;;13.62;100.00;100256.14;3481427;84;33226;-87
2022/10/25 00:46:55;;;;;;;14.10;7.03;;;;;;;13.58;100.00;100263.64;3467133;82;98954;-88
2022/10/25 00:52:00;;;;;;;14.67;7.47;;;;;;;13.48;100.00;100258.36;3476409;84;31562;-87
2022/10/25 00:57:15;;;;;;;12.53;6.90;;;;;;;13.46;100.00;100257.18;3472457;82;98870;-87
2022/10/25 01:02:19;;;;;;;11.15;5.72;;;;;;;13.46;100.00;100255.80;3481377;84;33683;-87
2022/10/25 01:07:19;;;;;;;12.73;7.10;;;;;;;13.41;100.00;100239.62;3458865;84;99111;-86
2022/10/25 01:12:20;;;;;;;9.37;5.17;;;;;;;13.41;100.00;100239.00;3457637;84;32928;-87
2022/10/25 01:17:29;;;;;;;17.13;6.97;;;;;;;13.46;100.00;100257.18;3470925;84;99079;-88
2022/10/25 01:22:38;;;;;;;12.85;6.80;;;;;;;13.46;100.00;100257.95;3466538;83;33081;-87
2022/10/25 01:28:19;;;;;;;10.25;5.83;;;;;;;13.45;100.00;100246.70;3454482;84;99148;-87
2022/10/25 01:33:28;;;;;;;9.78;5.10;;;;;;;13.35;100.00;100229.55;3473859;84;33928;-87
2022/10/25 01:38:43;;;;;;;21.00;7.17;;;;;;;13.35;100.00;100229.55;3453297;84;98983;-87
2022/10/25 01:44:07;;;;;;;12.28;5.87;;;;;;;13.42;100.00;100239.20;3452032;84;33236;-87
2022/10/25 01:49:13;;;;;;;10.67;5.33;;;;;;;13.42;100.00;100239.20;3434480;84;98944;-87
2022/10/25 02:00:11;;;;;;;10.03;5.22;;;;;;;13.40;100.00;100251.88;3448672;83;98933;-87
2022/10/25 02:05:29;;;;;;;15.68;6.10;;;;;;;13.36;100.00;100244.17;3472345;85;33230;-87
2022/10/25 02:11:17;;;;;;;9.60;5.00;;;;;;;13.34;100.00;100249.30;3469385;84;98938;-87
2022/10/25 02:16:31;;;;;;;9.87;4.40;;;;;;;13.28;100.00;100252.28;3458075;83;98660;-88
2022/10/25 02:21:35;;;;;;;14.45;5.42;;;;;;;13.19;100.00;100256.84;3462812;85;31431;-87
2022/10/25 02:26:37;;;;;;;11.57;5.00;;;;;;;13.13;100.00;100256.28;3466142;83;98947;-88
2022/10/25 02:31:38;;;;;;;10.70;5.28;;;;;;;13.09;100.00;100260.41;3475345;85;33344;-87
2022/10/25 02:36:38;;;;;;;10.78;6.03;;;;;;;13.02;100.00;100259.66;3469072;83;98827;-87
2022/10/25 02:41:39;;;;;;;9.13;5.20;;;;;;;12.92;100.00;100254.91;3477427;84;31914;-87
2022/10/25 02:46:40;;;;;;;10.93;6.27;;;;;;;12.85;100.00;100256.27;3461051;83;98934;-87
2022/10/25 02:51:41;;;;;;;10.93;5.70;;;;;;;12.79;100.00;100239.32;3472419;83;31709;-87
2022/10/25 02:56:42;;;;;;;12.17;5.87;;;;;;;12.76;100.00;100239.33;3482556;84;98996;-87
2022/10/25 03:01:43;;;;;;;12.80;5.50;;;;;;;12.71;100.00;100240.50;3513702;84;31645;-87
2022/10/25 03:06:43;;;;;;;10.58;5.47;;;;;;;12.68;100.00;100237.16;3502720;84;99512;-87
2022/10/25 03:11:44;;;;;;;11.03;6.30;;;;;;;12.66;100.00;100245.64;3513631;82;26033;-87
2022/10/25 03:16:45;;;;;;;11.07;6.07;;;;;;;12.61;100.00;100251.55;3510347;84;98821;-87
2022/10/25 03:21:45;;;;;;;13.33;6.17;;;;;;;12.55;100.00;100251.17;3527270;82;26692;-87
2022/10/25 03:26:46;;;;;;;12.70;6.33;;;;;;;12.47;100.00;100249.58;3505841;84;98833;-87
2022/10/25 03:31:47;;;;;;;14.10;7.00;;;;;;;12.40;100.00;100246.83;3518085;84;35018;-87
2022/10/25 03:36:48;;;;;;;10.70;6.23;;;;;;;12.36;100.00;100253.50;3516620;84;98890;-88
2022/10/25 03:41:49;;;;;;;13.72;6.70;;;;;;;12.28;100.00;100250.55;3516204;82;35026;-87
2022/10/25 03:46:50;;;;;;;13.98;6.05;;;;;;;12.22;100.00;100254.27;3506674;82;99418;-88
2022/10/25 03:51:50;;;;;;;15.03;7.73;;;;;;;12.19;100.00;100252.89;3522025;84;29152;-87
2022/10/25 03:56:51;;;;;;;11.57;6.93;;;;;;;12.17;100.00;100252.50;3512844;83;99020;-88
2022/10/25 04:01:52;;;;;;;13.63;6.00;;;;;;;12.14;100.00;100254.66;3469046;84;27739;-87
2022/10/25 04:06:53;;;;;;;12.27;6.47;;;;;;;12.14;100.00;100251.89;3449342;83;98911;-87
2022/10/25 04:11:54;;;;;;;10.47;6.30;;;;;;;12.12;100.00;100240.47;3464567;83;32671;-87
2022/10/25 04:16:55;;;;;;;12.40;7.00;;;;;;;12.10;100.00;100248.36;3467603;82;99159;-87
2022/10/25 04:21:56;;;;;;;13.10;7.37;;;;;;;12.09;100.00;100242.05;3454887;85;32474;-88
2022/10/25 04:26:57;;;;;;;17.67;8.00;;;;;;;12.07;100.00;100252.69;3514593;83;99075;-87
2022/10/25 04:31:58;;;;;;;17.00;7.77;;;;;;;12.09;100.00;100245.38;3513870;84;27985;-87
2022/10/25 04:36:58;;;;;;;16.57;8.90;;;;;;;12.09;100.00;100253.66;3515014;82;99090;-87
2022/10/25 04:41:59;;;;;;;17.97;9.80;;;;;;;12.08;100.00;100243.81;3512360;84;25833;-88
2022/10/25 04:47:00;;;;;;;21.67;8.43;;;;;;;12.08;100.00;100251.50;3508278;84;99200;-88
2022/10/25 04:52:01;;;;;;;11.93;7.47;;;;;;;12.09;100.00;100251.70;3517591;82;25854;-87
2022/10/25 04:57:02;;;;;;;13.90;7.10;;;;;;;12.12;100.00;100248.17;3515430;84;98853;-87
2022/10/25 05:02:04;;;;;;;13.67;8.00;;;;;;;12.15;100.00;100246.60;3518284;84;25852;-88
2022/10/25 05:07:05;;;;;;;15.00;7.60;;;;;;;12.18;100.00;100250.74;3507862;83;99219;-88
2022/10/25 05:12:05;;;;;;;13.90;7.80;;;;;;;12.19;100.00;100245.41;3513101;82;26660;-88
2022/10/25 05:17:06;;;;;;;15.26;7.80;;;;;;;12.22;100.00;100244.61;3509201;84;99236;-87
2022/10/25 05:22:07;;;;;;;16.60;8.03;;;;;;;12.25;100.00;100241.09;3508484;84;33411;-88
2022/10/25 05:27:08;;;;;;;13.97;8.10;;;;;;;12.27;100.00;100247.59;3488684;84;99373;-87
2022/10/25 05:32:09;;;;;;;15.33;7.87;;;;;;;12.26;100.00;100246.80;3502441;84;25895;-88
2022/10/25 05:37:10;;;;;;;16.13;8.13;;;;;;;12.29;100.00;100261.78;3497443;84;98962;-88
2022/10/25 05:42:14;;;;;;;17.43;9.33;;;;;;;12.29;100.00;100277.77;3508851;84;33253;-89
2022/10/25 05:47:15;;;;;;;13.95;8.68;;;;;;;12.32;100.00;100273.43;3487786;82;99314;-87
2022/10/25 05:52:16;;;;;;;13.43;7.37;;;;;;;12.33;100.00;100277.77;3504969;84;33224;-86
2022/10/25 05:57:17;;;;;;;19.73;9.08;;;;;;;12.34;100.00;100282.89;3499564;84;99045;-87
2022/10/25 06:02:18;;;;;;;20.50;11.70;;;;;;;12.38;100.00;100291.17;3514369;82;33518;-88
2022/10/25 06:07:18;;;;;;;18.37;9.70;;;;;;;12.41;100.00;100295.31;3500811;84;99200;-87
2022/10/25 06:12:19;;;;;;;21.03;10.50;;;;;;;12.43;100.00;100290.79;3496258;82;33456;-87
2022/10/25 06:17:21;;;;;;;24.27;11.00;;;;;;;12.46;100.00;100294.93;3488394;84;99327;-88
2022/10/25 06:22:21;;;;;;;15.10;9.37;;;;;;;12.49;100.00;100310.69;3494651;84;33200;-88
2022/10/25 06:27:22;;;;;;;18.23;11.07;;;;;;;12.54;100.00;100313.06;3487873;84;99248;-89
2022/10/25 06:32:23;;;;;;;16.60;9.93;;;;;;;12.59;100.00;100321.58;3493254;83;33229;-89
2022/10/25 06:37:24;;;;;;;18.07;9.70;;;;;;;12.60;100.00;100324.52;3489628;83;98898;-90
2022/10/25 06:42:25;;;;;;;18.87;9.58;;;;;;;12.64;100.00;100322.56;3480908;84;25879;-89
2022/10/25 06:47:25;;;;;;;19.10;10.27;;;;;;;12.66;100.00;100326.52;3482933;84;99082;-89
2022/10/25 06:52:28;;;;;;;20.93;11.93;;;;;;;12.71;100.00;100336.37;3497031;84;31675;-89
2022/10/25 06:57:28;;;;;;;20.23;11.47;;;;;;;12.76;100.00;100346.42;3486587;82;99521;-89
2022/10/25 07:02:29;;;;;;;16.63;11.43;;;;;;;12.82;100.00;100358.66;3470088;83;31657;-89
2022/10/25 07:07:30;;;;;;;18.97;11.40;;;;;;;12.89;100.00;100354.53;3492361;82;99453;-90
2022/10/25 07:12:36;;;;;;;15.73;10.10;;;;;;;12.98;100.00;100365.22;3502603;84;31746;-88
2022/10/25 07:17:33;;;;;;;18.43;10.63;;;;;;;13.05;100.00;100359.11;3500065;82;99408;-89
2022/10/25 07:22:34;;;;;;;14.47;8.97;;;;;;;13.16;100.00;100363.23;3509464;84;31683;-89
2022/10/25 07:27:35;;;;;;;16.60;8.67;;;;;;;13.30;100.00;100367.39;3455394;84;99185;-89
2022/10/25 07:32:36;;;;;;;18.07;8.63;;;;;;;13.46;100.00;100369.92;3466971;85;31600;-89
2022/10/25 07:37:36;;;;;;;16.35;7.80;;;;;;;13.64;100.00;100374.04;3485844;84;98796;-90
2022/10/25 07:42:37;;;;;;;15.73;7.47;;;;;;;13.79;100.00;100374.20;3484662;84;25932;-90
2022/10/25 07:47:38;;;;;;;15.17;6.67;;;;;;;13.90;100.00;100375.73;3480133;82;99268;-87
2022/10/25 07:52:39;;;;;;;16.87;6.97;;;;;;;14.01;100.00;100367.41;3490861;83;25983;-90
2022/10/25 07:57:40;;;;;;;12.53;5.87;;;;;;;14.09;100.00;100380.02;3481496;82;99180;-88
2022/10/25 08:02:41;;;;;;;12.97;6.43;;;;;;;14.11;100.00;100374.89;3469472;83;35464;-89
2022/10/25 08:07:42;;;;;;;15.60;6.60;;;;;;;14.10;100.00;100376.86;3462433;84;98973;-89
2022/10/25 08:12:43;;;;;;;11.33;6.33;;;;;;;14.10;100.00;100384.36;3466423;84;34905;-89
2022/10/25 08:17:44;;;;;;;17.80;6.30;;;;;;;14.08;100.00;100389.52;3462856;84;99085;-85
2022/10/25 08:22:44;;;;;;;12.73;6.47;;;;;;;14.08;100.00;100394.47;3475315;83;35366;-88
2022/10/25 08:27:45;;;;;;;15.03;7.57;;;;;;;14.11;100.00;100383.97;3476254;84;99383;-88
2022/10/25 08:32:46;;;;;;;13.77;7.27;;;;;;;14.19;100.00;100382.80;3461880;84;28120;-88
2022/10/25 08:37:47;;;;;;;13.53;6.35;;;;;;;14.27;100.00;100397.36;3445761;84;99350;-88
2022/10/25 08:42:56;;;;;;;16.40;7.90;;;;;;;14.36;100.00;100403.27;3460081;83;25952;-88
2022/10/25 08:47:59;;;;;;;12.53;6.70;;;;;;;14.46;100.00;100408.77;3474778;83;98987;-88
2022/10/25 08:53:05;;;;;;;10.50;6.05;;;;;;;14.60;100.00;100406.52;3466420;84;35466;-87
2022/10/25 08:58:21;;;;;;;11.83;6.92;;;;;;;14.71;100.00;100404.48;3381692;83;99730;-87
2022/10/25 09:03:25;;;;;;;13.80;6.03;;;;;;;14.86;100.00;100405.95;3425251;85;35081;-87
2022/10/25 09:09:06;;;;;;;11.83;6.08;;;;;;;15.01;100.00;100410.20;3439769;84;99008;-87
2022/10/25 09:14:57;;;;;;;13.93;5.58;;;;;;;15.20;100.00;100406.91;3452794;85;35163;-87
2022/10/25 09:20:18;;;;;;;11.73;5.00;;;;;;;15.37;100.00;100399.83;3407488;84;99236;-87
2022/10/25 09:25:51;;;;;;;13.13;5.00;;;;;;;15.55;100.00;100404.64;3440713;85;35495;-87
2022/10/25 09:30:56;;;;;;;11.75;4.78;;;;;;;15.71;100.00;100417.36;3349537;87;99115;-87
2022/10/25 09:35:58;;;;;;;8.60;3.72;;;;;;;15.79;100.00;100420.24;3504479;84;34907;-87
2022/10/25 09:41:15;;;;;;;10.13;4.15;;;;;;;15.85;100.00;100410.86;3493078;84;98888;-85
2022/10/25 09:46:21;;;;;;;8.08;4.03;;;;;;;15.86;100.00;100423.55;3492487;83;98954;-86
2022/10/25 09:51:52;;;;;;;9.25;3.12;;;;;;;15.82;100.00;100426.38;3511313;82;34452;-85
2022/10/25 09:56:53;;;;;;;9.58;3.85;;;;;;;15.85;100.00;100437.22;3505893;82;99232;-85
2022/10/25 10:01:54;;;;;;;8.58;3.12;;;;;;;15.89;100.00;100426.28;3501207;82;32999;-85
2022/10/25 10:07:01;;;;;;;8.33;3.20;;;;;;;15.90;100.00;100425.67;3495279;83;99137;-85
2022/10/25 10:12:04;;;;;;;10.05;2.80;;;;;;;15.93;100.00;100430.41;3509063;82;34996;-87
2022/10/25 10:17:10;;;;;;;8.78;3.60;;;;;;;15.89;100.00;100431.04;3505328;82;98930;-86
2022/10/25 10:22:14;;;;;;;10.03;3.27;;;;;;;15.89;100.00;100433.23;3477107;83;34788;-86
2022/10/25 10:27:25;;;;;;;8.73;3.20;;;;;;;15.89;100.00;100436.00;3504181;83;99246;-87
2022/10/25 10:32:32;;;;;;;11.08;3.50;;;;;;;15.90;100.00;100431.22;3499080;82;35432;-86
2022/10/25 10:37:33;;;;;;;10.45;3.47;;;;;;;15.91;100.00;100438.38;3497871;84;99210;-86
2022/10/25 10:42:41;;;;;;;8.20;3.40;;;;;;;15.95;100.00;100434.94;3503236;83;32944;-87
2022/10/25 10:47:53;;;;;;;9.55;3.37;;;;;;;15.94;100.00;100427.23;3474120;83;98937;-86
2022/10/25 10:53:00;;;;;;;9.83;3.42;;;;;;;15.98;100.00;100431.35;3513042;82;34813;-85
2022/10/25 10:58:08;;;;;;;7.67;2.67;;;;;;;15.95;100.00;100430.19;3504429;84;98697;-85
2022/10/25 11:03:15;;;;;;;10.82;3.75;;;;;;;15.90;100.00;100429.25;3466704;82;36012;-88
2022/10/25 11:08:21;;;;;;;8.50;2.67;;;;;;;15.80;100.00;100439.85;3485502;83;99455;-91
2022/10/25 11:13:24;;;;;;;9.55;2.98;;;;;;;15.73;100.00;100448.84;3500219;82;25817;-88
2022/10/25 11:18:56;;;;;;;14.65;3.87;;;;;;;15.71;100.00;100442.92;3505230;82;98716;-88
2022/10/25 11:24:37;;;;;;;8.63;2.98;;;;;;;15.72;100.00;100438.95;3501514;84;34819;-87
2022/10/25 11:30:18;;;;;;;8.58;2.83;;;;;;;15.73;100.00;100444.09;3482838;84;98976;-91
2022/10/25 11:35:43;;;;;;;6.53;2.50;;;;;;;15.79;100.00;100445.22;3502467;82;34876;-87
2022/10/25 11:41:01;;;;;;;7.90;2.80;;;;;;;15.84;100.00;100448.14;3501339;82;99134;-89
2022/10/25 11:46:08;;;;;;;15.08;3.98;;;;;;;15.83;100.00;100452.92;3498585;82;35165;-87
2022/10/25 11:51:34;;;;;;;8.73;3.22;;;;;;;15.85;100.00;100454.67;3464407;82;34571;-88
2022/10/25 11:56:49;;;;;;;10.65;2.83;;;;;;;15.90;100.00;100458.39;3505812;82;99507;-89
2022/10/25 12:02:04;;;;;;;6.15;2.58;;;;;;;15.93;100.00;100465.11;3496989;82;34836;-89
2022/10/25 12:07:25;;;;;;;7.55;2.05;;;;;;;15.95;100.00;100462.70;3471324;83;99132;-93
2022/10/25 12:12:41;;;;;;;7.03;2.30;;;;;;;15.99;100.00;100459.30;3470505;83;35404;-89
2022/10/25 12:17:44;;;;;;;8.33;2.65;;;;;;;16.00;100.00;100463.64;3405805;84;99023;-94
2022/10/25 12:22:52;;;;;;;7.00;2.60;;;;;;;16.03;100.00;100455.89;3403481;85;34926;-95
2022/10/25 12:28:06;;;;;;;8.35;2.83;;;;;;;16.08;99.80;100456.83;3397450;85;98974;-91
2022/10/25 12:33:44;;;;;;;9.10;2.70;;;;;;;16.13;100.00;100465.48;3393192;85;35207;-89
2022/10/25 12:38:45;;;;;;;12.80;3.85;;;;;;;16.19;99.77;100461.66;3394781;85;99205;-90
2022/10/25 12:44:13;;;;;;;13.37;4.63;;;;;;;16.27;99.58;100464.53;3395441;85;35001;-88
2022/10/25 12:49:47;;;;;;;9.55;3.98;;;;;;;16.35;99.48;100464.66;3382683;85;99176;-88
2022/10/25 12:55:09;;;;;;;10.05;3.47;;;;;;;16.43;99.74;100464.19;3399833;87;34906;-89
2022/10/25 13:00:15;;;;;;;8.58;3.40;;;;;;;16.49;99.25;100469.47;3392080;85;98751;-88
2022/10/25 13:05:50;;;;;;;7.28;2.87;;;;;;;16.57;98.72;100463.22;3445181;85;25702;-88
2022/10/25 13:11:04;;;;;;;10.08;3.00;;;;;;;16.56;97.82;100475.55;3418578;85;98802;-89
2022/10/25 13:16:08;;;;;;;6.33;2.37;;;;;;;16.61;98.18;100476.45;3445307;85;34836;-90
2022/10/25 13:21:23;;;;;;;5.97;2.40;;;;;;;16.62;97.07;100487.16;3436156;85;35204;-90
2022/10/25 13:26:29;;;;;;;8.05;2.40;;;;;;;16.60;96.76;100484.02;3402452;85;98803;-89
2022/10/25 13:36:59;;;;;;;5.15;2.37;;;;;;;16.58;96.63;100487.02;3395138;84;98668;-91
2022/10/25 13:42:36;;;;;;;10.43;2.77;;;;;;;16.58;96.73;100485.63;3426288;84;34967;-91
2022/10/25 13:47:42;;;;;;;;;;;;;;;16.55;96.58;100481.69;3434196;84;99338;-91
2022/10/25 13:52:54;;;;;;;8.65;3.77;;;;;;;16.56;96.58;100488.81;3438201;84;26556;-91
2022/10/25 13:57:57;;;;;;;7.92;2.40;;;;;;;16.55;96.70;100492.00;3435891;84;98801;-90
2022/10/25 14:03:12;;;;;;;5.87;2.87;;;;;;;16.49;96.24;100502.00;3426700;84;34842;-89
2022/10/25 14:09:08;;;;;;;;;;;;;;;;;;;;;
2022/10/25 14:14:18;;;;;;;5.55;2.02;;;;;;;16.46;96.53;100511.19;3382699;85;35097;-91
2022/10/25 14:19:36;;;;;;;6.45;2.42;;;;;;;16.40;96.54;100512.22;3406849;85;99148;-92
2022/10/25 14:24:39;;;;;;;9.85;2.85;;;;;;;16.32;97.04;100516.27;3411579;85;36044;-91
2022/10/25 14:29:42;;;;;;;7.65;2.58;;;;;;;16.34;97.56;100515.83;3411469;85;98542;-90
2022/10/25 14:34:50;;;;;;;8.95;2.75;;;;;;;16.23;97.87;100510.98;3406087;85;34863;-91
2022/10/25 14:39:52;;;;;;;11.63;3.62;;;;;;;16.16;98.04;100513.84;3394921;85;98392;-90
2022/10/25 14:44:53;;;;;;;7.78;3.12;;;;;;;16.08;98.31;100517.91;3407808;85;35072;-91
2022/10/25 14:49:56;;;;;;;8.50;3.27;;;;;;;16.02;98.55;100521.72;3402963;85;98682;-90
2022/10/25 14:55:01;;;;;;;11.03;4.47;;;;;;;15.95;98.70;100524.56;3395036;85;35435;-94
2022/10/25 15:00:05;;;;;;;8.37;3.77;;;;;;;15.85;98.79;100523.25;3387100;85;99180;-92
2022/10/25 15:05:08;;;;;;;7.12;2.70;;;;;;;15.73;98.89;100524.56;3426693;84;35128;-94
2022/10/25 15:15:43;;;;;;;6.08;3.27;;;;;;;15.47;99.33;100530.70;3435956;84;35564;-90
2022/10/25 15:20:48;;;;;;;7.90;3.42;;;;;;;15.33;99.54;100526.66;3441292;84;98645;-87
2022/10/25 15:25:49;;;;;;;8.25;3.67;;;;;;;15.24;99.79;100531.83;3447892;84;36234;-88
2022/10/25 15:30:58;;;;;;;6.27;3.00;;;;;;;15.12;100.00;100533.69;3438467;84;98722;-91
2022/10/25 15:36:03;;;;;;;12.78;4.50;;;;;;;15.05;100.00;100538.47;3443270;84;34804;-93
2022/10/25 15:41:04;;;;;;;8.70;3.50;;;;;;;14.99;100.00;100533.94;3431300;84;98934;-90
2022/10/25 15:46:10;;;;;;;9.80;4.30;;;;;;;14.91;100.00;100539.92;3441623;84;33031;-91
2022/10/25 15:51:11;;;;;;;23.32;11.28;;;;;;;14.84;100.00;100534.42;3440570;84;25917;-92
2022/10/25 15:56:16;;;;;;;16.07;8.50;;;;;;;14.78;100.00;100542.34;3436461;84;99435;-91
2022/10/25 16:01:18;;;;;;;14.65;7.35;;;;;;;14.70;100.00;100546.93;3462785;84;36019;-92
2022/10/25 16:06:18;;;;;;;17.42;9.55;;;;;;;14.63;100.00;100551.92;3443744;84;99082;-91
2022/10/25 16:11:20;;;;;;;33.67;17.63;;;;;;;14.58;100.00;100557.88;3434044;84;30071;-92
2022/10/25 16:16:26;;;;;;;21.97;11.80;;;;;;;14.52;100.00;100555.91;3435169;84;99266;-93
2022/10/25 16:21:26;;;;;;;22.33;10.57;;;;;;;14.43;100.00;100559.09;3433637;84;25976;-91
2022/10/25 16:26:44;;;;;;;16.70;9.53;;;;;;;14.37;100.00;100560.70;3426239;84;99519;-92
2022/10/25 16:31:44;;;;;;;19.35;11.25;;;;;;;14.30;100.00;100566.84;3437627;84;34923;-93
2022/10/25 16:36:47;;;;;;;21.40;12.33;;;;;;;14.19;100.00;100567.41;3438197;84;99431;-92
2022/10/25 16:41:48;;;;;;;13.55;9.55;;;;;;;14.13;100.00;100573.96;3438748;84;34914;-93
2022/10/25 16:46:49;;;;;;;12.00;7.33;;;;;;;14.09;100.00;100578.70;3434548;84;99289;-93
2022/10/25 16:51:51;;;;;;;15.13;9.10;;;;;;;14.05;100.00;100582.64;3483200;83;27131;-92
2022/10/25 16:56:52;;;;;;;17.45;9.03;;;;;;;14.02;100.00;100577.91;3476383;83;99159;-93
2022/10/25 17:01:54;;;;;;;20.20;8.60;;;;;;;13.97;100.00;100587.41;3389611;85;28871;-92
2022/10/25 17:06:55;;;;;;;13.83;7.70;;;;;;;13.94;100.00;100590.16;3511073;82;100060;-93
2022/10/25 17:11:55;;;;;;;20.37;10.50;;;;;;;13.95;100.00;100594.53;3506898;82;29280;-93
2022/10/25 17:16:56;;;;;;;16.23;8.97;;;;;;;13.89;100.00;100592.73;3473070;84;99431;-91
2022/10/25 17:21:57;;;;;;;18.30;10.80;;;;;;;13.91;100.00;100608.33;3469591;84;34223;-92
2022/10/25 17:26:58;;;;;;;19.63;12.23;;;;;;;13.91;100.00;100612.48;3475671;84;99372;-91
2022/10/25 17:31:59;;;;;;;23.97;13.30;;;;;;;13.89;100.00;100607.95;3466396;84;32579;-89
2022/10/25 17:37:01;;;;;;;24.37;13.93;;;;;;;13.90;100.00;100618.44;3462063;83;99340;-89
2022/10/25 17:42:02;;;;;;;24.90;14.67;;;;;;;13.89;100.00;100624.55;3471145;84;32371;-90
2022/10/25 17:47:02;;;;;;;18.43;11.63;;;;;;;13.89;100.00;100625.16;3464707;84;99268;-89
2022/10/25 17:52:04;;;;;;;24.57;15.45;;;;;;;13.88;100.00;100631.85;3483543;84;32801;-89
2022/10/25 17:57:05;;;;;;;29.07;17.20;;;;;;;13.87;100.00;100635.23;3473476;84;99444;-91
2022/10/25 18:02:05;;;;;;;26.13;17.67;;;;;;;13.87;100.00;100637.20;3476307;84;30581;-91
2022/10/25 18:07:06;;;;;;;28.33;17.07;;;;;;;13.82;100.00;100631.47;3474107;84;99846;-91
2022/10/25 18:12:08;;;;;;;23.40;15.07;;;;;;;13.79;100.00;100632.23;3476960;82;25928;-89
2022/10/25 18:17:09;;;;;;;25.20;12.73;;;;;;;13.76;100.00;100641.34;3501841;82;99418;-89
2022/10/25 18:22:09;;;;;;;17.33;10.97;;;;;;;13.74;100.00;100647.06;3505569;82;26631;-90
2022/10/25 18:27:10;;;;;;;20.00;10.43;;;;;;;13.73;100.00;100646.87;3495716;82;99485;-91
2022/10/25 18:32:11;;;;;;;18.37;10.63;;;;;;;13.69;100.00;100642.70;3508830;82;26534;-91
2022/10/25 18:37:12;;;;;;;17.10;8.97;;;;;;;13.66;100.00;100648.22;3506388;82;99173;-91
2022/10/25 18:42:13;;;;;;;18.48;9.18;;;;;;;13.60;100.00;100638.15;3511648;82;25885;-92
2022/10/25 18:47:14;;;;;;;17.70;8.60;;;;;;;13.55;100.00;100646.02;3512411;82;98885;-91
2022/10/25 18:52:15;;;;;;;15.83;8.77;;;;;;;13.49;100.00;100647.02;3510292;82;33221;-91
2022/10/25 18:57:16;;;;;;;11.55;7.00;;;;;;;13.42;100.00;100645.59;3507593;82;98984;-90
2022/10/25 19:02:17;;;;;;;16.83;7.63;;;;;;;13.34;100.00;100653.67;3511860;82;33720;-90
2022/10/25 19:07:18;;;;;;;14.03;6.25;;;;;;;13.28;100.00;100660.77;3507256;82;99262;-91
2022/10/25 19:12:18;;;;;;;17.70;6.60;;;;;;;13.22;100.00;100667.05;3515223;82;33956;-90
2022/10/25 19:17:19;;;;;;;14.03;5.17;;;;;;;13.12;100.00;100669.97;3503002;82;99235;-90
2022/10/25 19:22:20;;;;;;;11.00;4.90;;;;;;;13.02;100.00;100681.76;3506099;82;33178;-90
2022/10/25 19:27:21;;;;;;;9.47;4.73;;;;;;;12.91;100.00;100672.59;3502973;82;99395;-90
2022/10/25 19:32:22;;;;;;;10.17;5.03;;;;;;;12.84;100.00;100682.23;3484822;83;29737;-91
2022/10/25 19:37:23;;;;;;;13.07;6.47;;;;;;;12.80;100.00;100680.03;3496460;82;98917;-90
2022/10/25 19:42:23;;;;;;;14.13;6.07;;;;;;;12.74;100.00;100694.00;3510061;82;31912;-90
2022/10/25 19:47:24;;;;;;;11.20;5.87;;;;;;;12.70;100.00;100693.78;3509685;82;99391;-93
2022/10/25 19:52:25;;;;;;;12.97;6.87;;;;;;;12.63;100.00;100693.14;3513698;82;32041;-92
2022/10/25 19:57:26;;;;;;;12.30;6.37;;;;;;;12.56;100.00;100698.62;3497585;82;99433;-94
2022/10/25 20:02:26;;;;;;;12.85;5.95;;;;;;;12.51;100.00;100692.65;3506104;82;31722;-93
2022/10/25 20:07:27;;;;;;;12.90;6.30;;;;;;;12.43;100.00;100703.44;3513613;82;99197;-92
2022/10/25 20:12:29;;;;;;;14.67;7.07;;;;;;;12.40;100.00;100708.33;3523712;82;26043;-92
2022/10/25 20:17:30;;;;;;;12.40;5.87;;;;;;;12.35;100.00;100712.83;3503439;82;99094;-91
2022/10/25 20:22:32;;;;;;;9.23;4.73;;;;;;;12.30;100.00;100709.03;3515129;82;26098;-92
2022/10/25 20:27:33;;;;;;;11.80;6.08;;;;;;;12.24;100.00;100704.47;3506648;82;98885;-92
2022/10/25 20:32:34;;;;;;;13.23;6.63;;;;;;;12.17;100.00;100702.23;3510419;82;26527;-93
2022/10/25 20:37:35;;;;;;;12.27;5.53;;;;;;;12.13;100.00;100717.38;3506665;82;99167;-93
2022/10/25 20:42:35;;;;;;;11.30;5.60;;;;;;;12.09;100.00;100724.02;3510404;82;26672;-92
2022/10/25 20:47:36;;;;;;;10.20;5.53;;;;;;;12.01;100.00;100717.66;3504224;82;99319;-94
2022/10/25 20:52:37;;;;;;;10.37;5.70;;;;;;;11.94;100.00;100720.93;3509787;82;34842;-93
2022/10/25 20:57:39;;;;;;;10.27;5.50;;;;;;;11.83;100.00;100723.56;3501815;82;99381;-92
2022/10/25 21:02:40;;;;;;;11.85;6.55;;;;;;;11.77;100.00;100725.68;3514953;82;26542;-92
2022/10/25 21:07:40;;;;;;;10.47;6.50;;;;;;;11.71;100.00;100729.92;3507781;82;99408;-92
2022/10/25 21:12:41;;;;;;;10.30;6.22;;;;;;;11.65;100.00;100731.42;3514573;82;34825;-93
2022/10/25 21:17:48;;;;;;;13.17;6.10;;;;;;;11.59;100.00;100727.42;3509454;82;99219;-93
2022/10/25 21:22:49;;;;;;;11.65;6.08;;;;;;;11.54;100.00;100731.86;3514833;82;35528;-93
2022/10/25 21:27:54;;;;;;;13.50;6.63;;;;;;;11.47;100.00;100736.72;3506171;83;99308;-92
2022/10/25 21:32:55;;;;;;;15.32;7.37;;;;;;;11.40;100.00;100739.97;3516448;83;36026;-92
2022/10/25 21:37:57;;;;;;;14.13;7.13;;;;;;;11.34;100.00;100742.25;3508529;83;99335;-94
2022/10/25 21:42:58;;;;;;;16.55;8.60;;;;;;;11.30;100.00;100742.00;3511928;83;34907;-91
2022/10/25 21:47:59;;;;;;;19.40;8.90;;;;;;;11.23;100.00;100735.80;3504092;82;98882;-92
2022/10/25 21:53:00;;;;;;;17.77;9.30;;;;;;;11.16;100.00;100737.09;3516522;82;26504;-93
2022/10/25 21:58:00;;;;;;;21.33;8.98;;;;;;;11.11;100.00;100738.80;3512422;83;99259;-94
2022/10/25 22:03:01;;;;;;;19.20;9.63;;;;;;;11.06;100.00;100739.72;3506318;83;32757;-91
2022/10/25 22:08:02;;;;;;;19.70;8.83;;;;;;;11.01;100.00;100742.19;3514482;82;99066;-91
2022/10/25 22:13:03;;;;;;;24.33;11.43;;;;;;;10.96;100.00;100738.37;3522172;82;32549;-91
2022/10/25 22:18:04;;;;;;;23.60;10.58;;;;;;;10.92;100.00;100747.77;3508453;82;99406;-93
2022/10/25 22:23:05;;;;;;;36.47;14.50;;;;;;;10.88;100.00;100745.53;3515773;82;27388;-95
2022/10/25 22:28:05;;;;;;;33.83;13.17;;;;;;;10.82;100.00;100751.15;3507399;82;99631;-95
2022/10/25 22:33:06;;;;;;;23.97;10.43;;;;;;;10.75;100.00;100749.07;3476988;83;26155;-94
2022/10/25 22:38:07;;;;;;;22.67;9.25;;;;;;;10.71;100.00;100743.31;3501657;82;99409;-94
2022/10/25 22:43:08;;;;;;;22.83;10.67;;;;;;;10.65;100.00;100742.84;3513687;82;26219;-95
2022/10/25 22:48:09;;;;;;;20.13;9.43;;;;;;;10.58;100.00;100744.09;3506495;82;99114;-95
2022/10/25 22:53:09;;;;;;;15.30;8.43;;;;;;;10.52;100.00;100749.70;3517051;82;26496;-94
2022/10/25 22:58:10;;;;;;;16.70;8.95;;;;;;;10.50;100.00;100741.59;3507437;82;99249;-93
2022/10/25 23:03:11;;;;;;;13.57;7.40;;;;;;;10.45;100.00;100748.78;3516121;82;33768;-94
2022/10/25 23:08:11;;;;;;;15.03;8.10;;;;;;;10.38;100.00;100752.23;3515162;82;99333;-94
2022/10/25 23:13:12;;;;;;;13.97;8.03;;;;;;;10.35;100.00;100756.30;3515494;82;33741;-94
2022/10/25 23:18:13;;;;;;;16.27;7.93;;;;;;;10.28;100.00;100758.34;3505993;82;99313;-93
2022/10/25 23:23:14;;;;;;;17.43;8.97;;;;;;;10.23;100.00;100764.14;3443098;83;34280;-94
2022/10/25 23:28:15;;;;;;;16.50;9.08;;;;;;;10.19;100.00;100771.53;3499072;82;99141;-93